sensor_id;sensor_type;location;lat;lon;timestamp;temperature;humidity
11491;DHT22;5802;52.832;4.758;2024-03-02T00:00:23;24.70;40.10
11491;DHT22;5802;52.832;4.758;2024-03-02T00:02:51;24.60;39.90
11491;DHT22;5802;52.832;4.758;2024-03-02T00:05:20;24.60;40.00
11491;DHT22;5802;52.832;4.758;2024-03-02T00:07:53;24.60;39.90
11491;DHT22;5802;52.832;4.758;2024-03-02T00:10:22;24.60;40.00
11491;DHT22;5802;52.832;4.758;2024-03-02T00:12:55;24.60;39.90
11491;DHT22;5802;52.832;4.758;2024-03-02T00:15:37;24.60;40.00
11491;DHT22;5802;52.832;4.758;2024-03-02T00:18:04;24.60;39.90
11491;DHT22;5802;52.832;4.758;2024-03-02T00:20:33;24.60;39.90
11491;DHT22;5802;52.832;4.758;2024-03-02T00:23:03;24.60;39.90
11491;DHT22;5802;52.832;4.758;2024-03-02T00:25:39;24.60;39.90
11491;DHT22;5802;52.832;4.758;2024-03-02T00:28:13;24.60;39.90
11491;DHT22;5802;52.832;4.758;2024-03-02T00:31:05;24.60;39.80
11491;DHT22;5802;52.832;4.758;2024-03-02T00:33:33;24.60;39.90
11491;DHT22;5802;52.832;4.758;2024-03-02T00:36:03;24.60;39.90
11491;DHT22;5802;52.832;4.758;2024-03-02T00:38:30;24.60;40.00
11491;DHT22;5802;52.832;4.758;2024-03-02T00:40:59;24.60;39.90
11491;DHT22;5802;52.832;4.758;2024-03-02T00:43:47;24.60;39.80
11491;DHT22;5802;52.832;4.758;2024-03-02T00:46:16;24.50;39.80
11491;DHT22;5802;52.832;4.758;2024-03-02T00:48:51;24.50;39.80
11491;DHT22;5802;52.832;4.758;2024-03-02T00:51:21;24.50;39.90
11491;DHT22;5802;52.832;4.758;2024-03-02T00:53:48;24.50;39.90
11491;DHT22;5802;52.832;4.758;2024-03-02T00:56:16;24.50;39.90
11491;DHT22;5802;52.832;4.758;2024-03-02T00:58:43;24.50;39.80
11491;DHT22;5802;52.832;4.758;2024-03-02T01:01:10;24.50;39.80
11491;DHT22;5802;52.832;4.758;2024-03-02T01:03:37;24.50;39.80
11491;DHT22;5802;52.832;4.758;2024-03-02T01:06:04;24.50;39.80
11491;DHT22;5802;52.832;4.758;2024-03-02T01:08:34;24.50;39.80
11491;DHT22;5802;52.832;4.758;2024-03-02T01:11:01;24.50;39.80
11491;DHT22;5802;52.832;4.758;2024-03-02T01:13:28;24.50;39.80
11491;DHT22;5802;52.832;4.758;2024-03-02T01:15:55;24.50;39.80
11491;DHT22;5802;52.832;4.758;2024-03-02T01:18:22;24.50;39.80
11491;DHT22;5802;52.832;4.758;2024-03-02T01:20:49;24.50;39.80
11491;DHT22;5802;52.832;4.758;2024-03-02T01:23:18;24.50;39.80
11491;DHT22;5802;52.832;4.758;2024-03-02T01:25:47;24.50;39.80
11491;DHT22;5802;52.832;4.758;2024-03-02T01:28:14;24.50;39.80
11491;DHT22;5802;52.832;4.758;2024-03-02T01:30:41;24.50;39.80
11491;DHT22;5802;52.832;4.758;2024-03-02T01:33:08;24.50;39.80
11491;DHT22;5802;52.832;4.758;2024-03-02T01:35:35;24.50;39.80
11491;DHT22;5802;52.832;4.758;2024-03-02T01:38:02;24.50;39.80
11491;DHT22;5802;52.832;4.758;2024-03-02T01:40:31;24.50;39.80
11491;DHT22;5802;52.832;4.758;2024-03-02T01:42:59;24.50;39.80
11491;DHT22;5802;52.832;4.758;2024-03-02T01:45:28;24.50;39.70
11491;DHT22;5802;52.832;4.758;2024-03-02T01:47:55;24.50;39.80
11491;DHT22;5802;52.832;4.758;2024-03-02T01:50:25;24.50;39.70
11491;DHT22;5802;52.832;4.758;2024-03-02T01:52:53;24.50;39.80
11491;DHT22;5802;52.832;4.758;2024-03-02T01:55:20;24.50;39.80
11491;DHT22;5802;52.832;4.758;2024-03-02T01:57:47;24.50;39.80
11491;DHT22;5802;52.832;4.758;2024-03-02T02:00:16;24.50;39.80
11491;DHT22;5802;52.832;4.758;2024-03-02T02:02:43;24.50;39.90
11491;DHT22;5802;52.832;4.758;2024-03-02T02:05:10;24.50;39.80
11491;DHT22;5802;52.832;4.758;2024-03-02T02:07:37;24.50;40.10
11491;DHT22;5802;52.832;4.758;2024-03-02T02:10:05;24.50;39.80
11491;DHT22;5802;52.832;4.758;2024-03-02T02:12:32;24.50;39.80
11491;DHT22;5802;52.832;4.758;2024-03-02T02:14:59;24.50;39.80
11491;DHT22;5802;52.832;4.758;2024-03-02T02:17:27;24.50;39.90
11491;DHT22;5802;52.832;4.758;2024-03-02T02:19:54;24.50;39.90
11491;DHT22;5802;52.832;4.758;2024-03-02T02:22:22;24.50;39.80
11491;DHT22;5802;52.832;4.758;2024-03-02T02:24:49;24.50;39.90
11491;DHT22;5802;52.832;4.758;2024-03-02T02:27:16;24.50;39.90
11491;DHT22;5802;52.832;4.758;2024-03-02T02:29:42;24.50;39.90
11491;DHT22;5802;52.832;4.758;2024-03-02T02:32:09;24.50;39.80
11491;DHT22;5802;52.832;4.758;2024-03-02T02:34:36;24.50;39.90
11491;DHT22;5802;52.832;4.758;2024-03-02T02:37:03;24.50;39.90
11491;DHT22;5802;52.832;4.758;2024-03-02T02:39:33;24.50;39.80
11491;DHT22;5802;52.832;4.758;2024-03-02T02:41:59;24.50;39.90
11491;DHT22;5802;52.832;4.758;2024-03-02T02:44:28;24.40;40.50
11491;DHT22;5802;52.832;4.758;2024-03-02T02:46:55;24.40;39.80
11491;DHT22;5802;52.832;4.758;2024-03-02T02:49:22;24.40;39.80
11491;DHT22;5802;52.832;4.758;2024-03-02T02:51:49;24.40;40.40
11491;DHT22;5802;52.832;4.758;2024-03-02T02:54:16;24.40;39.80
11491;DHT22;5802;52.832;4.758;2024-03-02T02:56:44;24.40;39.80
11491;DHT22;5802;52.832;4.758;2024-03-02T02:59:11;24.40;39.80
11491;DHT22;5802;52.832;4.758;2024-03-02T03:01:38;24.40;39.80
11491;DHT22;5802;52.832;4.758;2024-03-02T03:04:05;24.40;39.80
11491;DHT22;5802;52.832;4.758;2024-03-02T03:06:32;24.40;39.70
11491;DHT22;5802;52.832;4.758;2024-03-02T03:08:59;24.40;39.70
11491;DHT22;5802;52.832;4.758;2024-03-02T03:11:25;24.40;39.70
11491;DHT22;5802;52.832;4.758;2024-03-02T03:13:54;24.40;39.70
11491;DHT22;5802;52.832;4.758;2024-03-02T03:16:21;24.40;39.70
11491;DHT22;5802;52.832;4.758;2024-03-02T03:18:48;24.40;39.70
11491;DHT22;5802;52.832;4.758;2024-03-02T03:21:17;24.40;39.80
11491;DHT22;5802;52.832;4.758;2024-03-02T03:23:44;24.40;40.40
11491;DHT22;5802;52.832;4.758;2024-03-02T03:26:10;24.40;39.70
11491;DHT22;5802;52.832;4.758;2024-03-02T03:28:37;24.40;39.70
11491;DHT22;5802;52.832;4.758;2024-03-02T03:31:05;24.40;39.70
11491;DHT22;5802;52.832;4.758;2024-03-02T03:33:32;24.40;40.40
11491;DHT22;5802;52.832;4.758;2024-03-02T03:36:00;24.40;40.40
11491;DHT22;5802;52.832;4.758;2024-03-02T03:38:28;24.40;39.70
11491;DHT22;5802;52.832;4.758;2024-03-02T03:40:55;24.40;39.70
11491;DHT22;5802;52.832;4.758;2024-03-02T03:43:22;24.40;39.60
11491;DHT22;5802;52.832;4.758;2024-03-02T03:45:49;24.40;39.60
11491;DHT22;5802;52.832;4.758;2024-03-02T03:48:17;24.40;39.60
11491;DHT22;5802;52.832;4.758;2024-03-02T03:50:44;24.40;39.50
11491;DHT22;5802;52.832;4.758;2024-03-02T03:53:11;24.40;39.60
11491;DHT22;5802;52.832;4.758;2024-03-02T03:55:40;24.40;39.50
11491;DHT22;5802;52.832;4.758;2024-03-02T03:58:07;24.40;39.50
11491;DHT22;5802;52.832;4.758;2024-03-02T04:00:33;24.30;39.50
11491;DHT22;5802;52.832;4.758;2024-03-02T04:03:00;24.30;39.40
11491;DHT22;5802;52.832;4.758;2024-03-02T04:05:28;24.30;39.40
11491;DHT22;5802;52.832;4.758;2024-03-02T04:07:55;24.30;39.40
11491;DHT22;5802;52.832;4.758;2024-03-02T04:10:22;24.30;39.40
11491;DHT22;5802;52.832;4.758;2024-03-02T04:12:50;24.30;39.40
11491;DHT22;5802;52.832;4.758;2024-03-02T04:15:17;24.30;39.40
11491;DHT22;5802;52.832;4.758;2024-03-02T04:17:44;24.30;39.50
11491;DHT22;5802;52.832;4.758;2024-03-02T04:20:11;24.30;39.40
11491;DHT22;5802;52.832;4.758;2024-03-02T04:22:40;24.30;39.50
11491;DHT22;5802;52.832;4.758;2024-03-02T04:25:07;24.30;39.50
11491;DHT22;5802;52.832;4.758;2024-03-02T04:27:35;24.30;39.50
11491;DHT22;5802;52.832;4.758;2024-03-02T04:30:02;24.30;39.50
11491;DHT22;5802;52.832;4.758;2024-03-02T04:32:29;24.30;39.50
11491;DHT22;5802;52.832;4.758;2024-03-02T04:34:56;24.30;39.50
11491;DHT22;5802;52.832;4.758;2024-03-02T04:37:23;24.30;39.60
11491;DHT22;5802;52.832;4.758;2024-03-02T04:39:52;24.30;39.50
11491;DHT22;5802;52.832;4.758;2024-03-02T04:42:18;24.30;39.50
11491;DHT22;5802;52.832;4.758;2024-03-02T04:44:45;24.30;39.50
11491;DHT22;5802;52.832;4.758;2024-03-02T04:47:12;24.30;39.50
11491;DHT22;5802;52.832;4.758;2024-03-02T04:49:39;24.30;39.50
11491;DHT22;5802;52.832;4.758;2024-03-02T04:52:06;24.30;39.50
11491;DHT22;5802;52.832;4.758;2024-03-02T04:54:33;24.30;39.50
11491;DHT22;5802;52.832;4.758;2024-03-02T04:57:21;24.30;39.50
11491;DHT22;5802;52.832;4.758;2024-03-02T04:59:48;24.30;39.60
11491;DHT22;5802;52.832;4.758;2024-03-02T05:02:15;24.30;39.60
11491;DHT22;5802;52.832;4.758;2024-03-02T05:04:41;24.30;39.60
11491;DHT22;5802;52.832;4.758;2024-03-02T05:07:08;24.30;39.60
11491;DHT22;5802;52.832;4.758;2024-03-02T05:09:35;24.30;39.60
11491;DHT22;5802;52.832;4.758;2024-03-02T05:12:02;24.30;39.60
11491;DHT22;5802;52.832;4.758;2024-03-02T05:14:50;24.30;39.50
11491;DHT22;5802;52.832;4.758;2024-03-02T05:17:16;24.30;39.60
11491;DHT22;5802;52.832;4.758;2024-03-02T05:19:43;24.30;39.60
11491;DHT22;5802;52.832;4.758;2024-03-02T05:22:10;24.30;39.60
11491;DHT22;5802;52.832;4.758;2024-03-02T05:24:37;24.30;39.60
11491;DHT22;5802;52.832;4.758;2024-03-02T05:27:04;24.30;39.70
11491;DHT22;5802;52.832;4.758;2024-03-02T05:29:32;24.30;39.70
11491;DHT22;5802;52.832;4.758;2024-03-02T05:32:01;24.30;39.70
11491;DHT22;5802;52.832;4.758;2024-03-02T05:34:28;24.30;39.70
11491;DHT22;5802;52.832;4.758;2024-03-02T05:36:56;24.30;39.70
11491;DHT22;5802;52.832;4.758;2024-03-02T05:39:23;24.30;39.80
11491;DHT22;5802;52.832;4.758;2024-03-02T05:41:50;24.30;39.80
11491;DHT22;5802;52.832;4.758;2024-03-02T05:44:16;24.20;39.70
11491;DHT22;5802;52.832;4.758;2024-03-02T05:46:43;24.30;39.90
11491;DHT22;5802;52.832;4.758;2024-03-02T05:49:12;24.30;39.80
11491;DHT22;5802;52.832;4.758;2024-03-02T05:51:39;24.20;39.80
11491;DHT22;5802;52.832;4.758;2024-03-02T05:54:05;24.20;39.80
11491;DHT22;5802;52.832;4.758;2024-03-02T05:56:32;24.20;40.40
11491;DHT22;5802;52.832;4.758;2024-03-02T05:58:59;24.20;39.80
11491;DHT22;5802;52.832;4.758;2024-03-02T06:01:38;24.20;39.80
11491;DHT22;5802;52.832;4.758;2024-03-02T06:04:05;24.20;39.80
11491;DHT22;5802;52.832;4.758;2024-03-02T06:06:34;24.20;39.80
11491;DHT22;5802;52.832;4.758;2024-03-02T06:09:01;24.30;39.80
11491;DHT22;5802;52.832;4.758;2024-03-02T06:11:30;24.30;39.80
11491;DHT22;5802;52.832;4.758;2024-03-02T06:13:57;24.30;39.80
11491;DHT22;5802;52.832;4.758;2024-03-02T06:16:24;24.20;39.70
11491;DHT22;5802;52.832;4.758;2024-03-02T06:18:51;24.30;39.80
11491;DHT22;5802;52.832;4.758;2024-03-02T06:21:19;24.30;39.80
11491;DHT22;5802;52.832;4.758;2024-03-02T06:23:48;24.30;39.80
11491;DHT22;5802;52.832;4.758;2024-03-02T06:26:15;24.30;39.80
11491;DHT22;5802;52.832;4.758;2024-03-02T06:28:42;24.30;39.90
11491;DHT22;5802;52.832;4.758;2024-03-02T06:31:09;24.30;39.90
11491;DHT22;5802;52.832;4.758;2024-03-02T06:33:36;24.30;40.00
11491;DHT22;5802;52.832;4.758;2024-03-02T06:36:04;24.30;40.00
11491;DHT22;5802;52.832;4.758;2024-03-02T06:38:33;24.30;40.10
11491;DHT22;5802;52.832;4.758;2024-03-02T06:41:02;24.20;40.10
11491;DHT22;5802;52.832;4.758;2024-03-02T06:43:28;24.30;40.10
11491;DHT22;5802;52.832;4.758;2024-03-02T06:45:55;24.30;40.10
11491;DHT22;5802;52.832;4.758;2024-03-02T06:48:22;24.20;40.10
11491;DHT22;5802;52.832;4.758;2024-03-02T06:50:50;24.30;40.30
11491;DHT22;5802;52.832;4.758;2024-03-02T06:53:17;24.20;40.20
11491;DHT22;5802;52.832;4.758;2024-03-02T06:55:45;24.30;40.20
11491;DHT22;5802;52.832;4.758;2024-03-02T06:58:13;24.30;40.30
11491;DHT22;5802;52.832;4.758;2024-03-02T07:00:41;24.30;40.30
11491;DHT22;5802;52.832;4.758;2024-03-02T07:03:09;24.30;40.30
11491;DHT22;5802;52.832;4.758;2024-03-02T07:05:36;24.30;40.30
11491;DHT22;5802;52.832;4.758;2024-03-02T07:08:03;24.30;40.30
11491;DHT22;5802;52.832;4.758;2024-03-02T07:10:31;24.30;40.30
11491;DHT22;5802;52.832;4.758;2024-03-02T07:12:58;24.30;40.30
11491;DHT22;5802;52.832;4.758;2024-03-02T07:15:26;24.30;40.30
11491;DHT22;5802;52.832;4.758;2024-03-02T07:18:10;24.30;40.30
11491;DHT22;5802;52.832;4.758;2024-03-02T07:20:37;24.30;40.30
11491;DHT22;5802;52.832;4.758;2024-03-02T07:23:04;24.30;40.40
11491;DHT22;5802;52.832;4.758;2024-03-02T07:25:32;24.30;40.30
11491;DHT22;5802;52.832;4.758;2024-03-02T07:27:59;24.30;40.30
11491;DHT22;5802;52.832;4.758;2024-03-02T07:30:27;24.30;40.30
11491;DHT22;5802;52.832;4.758;2024-03-02T07:32:54;24.40;40.40
11491;DHT22;5802;52.832;4.758;2024-03-02T07:35:20;24.40;40.30
11491;DHT22;5802;52.832;4.758;2024-03-02T07:37:52;24.40;40.30
11491;DHT22;5802;52.832;4.758;2024-03-02T07:40:19;24.40;40.30
11491;DHT22;5802;52.832;4.758;2024-03-02T07:42:45;24.40;40.30
11491;DHT22;5802;52.832;4.758;2024-03-02T07:45:12;24.40;40.30
11491;DHT22;5802;52.832;4.758;2024-03-02T07:47:41;24.40;40.30
11491;DHT22;5802;52.832;4.758;2024-03-02T07:50:08;24.50;40.30
11491;DHT22;5802;52.832;4.758;2024-03-02T07:52:35;24.50;40.30
11491;DHT22;5802;52.832;4.758;2024-03-02T07:55:02;24.50;40.30
11491;DHT22;5802;52.832;4.758;2024-03-02T07:57:29;24.50;40.30
11491;DHT22;5802;52.832;4.758;2024-03-02T07:59:56;24.50;40.30
11491;DHT22;5802;52.832;4.758;2024-03-02T08:02:25;24.60;40.30
11491;DHT22;5802;52.832;4.758;2024-03-02T08:04:53;24.60;40.20
11491;DHT22;5802;52.832;4.758;2024-03-02T08:07:20;24.60;40.20
11491;DHT22;5802;52.832;4.758;2024-03-02T08:09:47;24.60;40.10
11491;DHT22;5802;52.832;4.758;2024-03-02T08:12:14;24.70;40.10
11491;DHT22;5802;52.832;4.758;2024-03-02T08:14:40;24.70;40.10
11491;DHT22;5802;52.832;4.758;2024-03-02T08:17:07;24.70;40.10
11491;DHT22;5802;52.832;4.758;2024-03-02T08:19:36;24.70;40.00
11491;DHT22;5802;52.832;4.758;2024-03-02T08:22:05;24.80;40.00
11491;DHT22;5802;52.832;4.758;2024-03-02T08:24:32;24.80;39.90
11491;DHT22;5802;52.832;4.758;2024-03-02T08:26:59;24.80;39.90
11491;DHT22;5802;52.832;4.758;2024-03-02T08:29:27;24.80;39.90
11491;DHT22;5802;52.832;4.758;2024-03-02T08:31:54;24.90;39.80
11491;DHT22;5802;52.832;4.758;2024-03-02T08:34:20;24.90;39.80
11491;DHT22;5802;52.832;4.758;2024-03-02T08:36:47;24.90;39.70
11491;DHT22;5802;52.832;4.758;2024-03-02T08:39:16;24.90;39.70
11491;DHT22;5802;52.832;4.758;2024-03-02T08:41:44;24.90;39.60
11491;DHT22;5802;52.832;4.758;2024-03-02T08:44:12;24.90;39.60
11491;DHT22;5802;52.832;4.758;2024-03-02T08:46:39;25.00;39.60
11491;DHT22;5802;52.832;4.758;2024-03-02T08:49:06;25.00;39.50
11491;DHT22;5802;52.832;4.758;2024-03-02T08:51:33;25.10;39.50
11491;DHT22;5802;52.832;4.758;2024-03-02T08:54:00;25.00;39.50
11491;DHT22;5802;52.832;4.758;2024-03-02T08:56:28;25.10;39.40
11491;DHT22;5802;52.832;4.758;2024-03-02T08:58:55;25.10;39.40
11491;DHT22;5802;52.832;4.758;2024-03-02T09:01:22;25.10;39.40
11491;DHT22;5802;52.832;4.758;2024-03-02T09:03:49;25.20;39.40
11491;DHT22;5802;52.832;4.758;2024-03-02T09:06:16;25.20;39.40
11491;DHT22;5802;52.832;4.758;2024-03-02T09:08:45;25.20;39.40
11491;DHT22;5802;52.832;4.758;2024-03-02T09:11:11;25.20;39.30
11491;DHT22;5802;52.832;4.758;2024-03-02T09:13:40;25.20;39.30
11491;DHT22;5802;52.832;4.758;2024-03-02T09:16:07;25.30;39.30
11491;DHT22;5802;52.832;4.758;2024-03-02T09:18:36;25.30;39.30
11491;DHT22;5802;52.832;4.758;2024-03-02T09:21:04;25.30;39.30
11491;DHT22;5802;52.832;4.758;2024-03-02T09:23:31;25.30;39.20
11491;DHT22;5802;52.832;4.758;2024-03-02T09:25:58;25.40;39.30
11491;DHT22;5802;52.832;4.758;2024-03-02T09:28:25;25.40;39.20
11491;DHT22;5802;52.832;4.758;2024-03-02T09:30:53;25.40;39.20
11491;DHT22;5802;52.832;4.758;2024-03-02T09:33:20;25.50;39.20
11491;DHT22;5802;52.832;4.758;2024-03-02T09:35:47;25.50;39.20
11491;DHT22;5802;52.832;4.758;2024-03-02T09:38:14;25.50;39.10
11491;DHT22;5802;52.832;4.758;2024-03-02T09:40:42;25.50;39.10
11491;DHT22;5802;52.832;4.758;2024-03-02T09:43:09;25.50;39.00
11491;DHT22;5802;52.832;4.758;2024-03-02T09:45:36;25.60;39.10
11491;DHT22;5802;52.832;4.758;2024-03-02T09:48:05;25.60;39.00
11491;DHT22;5802;52.832;4.758;2024-03-02T09:50:32;25.60;39.00
11491;DHT22;5802;52.832;4.758;2024-03-02T09:52:59;25.60;39.00
11491;DHT22;5802;52.832;4.758;2024-03-02T09:55:26;25.60;38.90
11491;DHT22;5802;52.832;4.758;2024-03-02T09:57:53;25.70;38.90
11491;DHT22;5802;52.832;4.758;2024-03-02T10:00:21;25.80;39.00
11491;DHT22;5802;52.832;4.758;2024-03-02T10:02:48;25.80;38.90
11491;DHT22;5802;52.832;4.758;2024-03-02T10:05:25;25.80;38.80
11491;DHT22;5802;52.832;4.758;2024-03-02T10:07:59;25.90;38.80
11491;DHT22;5802;52.832;4.758;2024-03-02T10:10:34;25.90;38.80
11491;DHT22;5802;52.832;4.758;2024-03-02T10:13:03;25.90;38.80
11491;DHT22;5802;52.832;4.758;2024-03-02T10:15:31;26.00;38.80
11491;DHT22;5802;52.832;4.758;2024-03-02T10:17:58;26.00;38.70
11491;DHT22;5802;52.832;4.758;2024-03-02T10:20:27;26.00;38.70
11491;DHT22;5802;52.832;4.758;2024-03-02T10:22:55;26.10;38.70
11491;DHT22;5802;52.832;4.758;2024-03-02T10:25:31;26.10;39.30
11491;DHT22;5802;52.832;4.758;2024-03-02T10:27:59;26.20;38.70
11491;DHT22;5802;52.832;4.758;2024-03-02T10:30:26;26.20;38.60
11491;DHT22;5802;52.832;4.758;2024-03-02T10:32:53;26.20;38.60
11491;DHT22;5802;52.832;4.758;2024-03-02T10:35:22;26.30;38.60
11491;DHT22;5802;52.832;4.758;2024-03-02T10:37:50;26.30;38.50
11491;DHT22;5802;52.832;4.758;2024-03-02T10:40:18;26.30;38.50
11491;DHT22;5802;52.832;4.758;2024-03-02T10:42:45;26.40;37.50
11491;DHT22;5802;52.832;4.758;2024-03-02T10:45:12;26.40;36.10
11491;DHT22;5802;52.832;4.758;2024-03-02T10:47:41;26.40;34.80
11491;DHT22;5802;52.832;4.758;2024-03-02T10:50:09;26.50;34.20
11491;DHT22;5802;52.832;4.758;2024-03-02T10:52:36;26.50;33.00
11491;DHT22;5802;52.832;4.758;2024-03-02T10:55:07;26.50;32.70
11491;DHT22;5802;52.832;4.758;2024-03-02T10:57:41;26.50;32.40
11491;DHT22;5802;52.832;4.758;2024-03-02T11:00:12;26.50;31.70
11491;DHT22;5802;52.832;4.758;2024-03-02T11:02:46;26.50;31.80
11491;DHT22;5802;52.832;4.758;2024-03-02T11:05:25;26.50;31.10
11491;DHT22;5802;52.832;4.758;2024-03-02T11:07:55;26.50;31.10
11491;DHT22;5802;52.832;4.758;2024-03-02T11:10:25;26.50;30.20
11491;DHT22;5802;52.832;4.758;2024-03-02T11:12:57;26.50;30.20
11491;DHT22;5802;52.832;4.758;2024-03-02T11:15:25;26.50;30.00
11491;DHT22;5802;52.832;4.758;2024-03-02T11:17:54;26.50;30.00
11491;DHT22;5802;52.832;4.758;2024-03-02T11:20:22;26.50;30.40
11491;DHT22;5802;52.832;4.758;2024-03-02T11:22:50;26.50;30.00
11491;DHT22;5802;52.832;4.758;2024-03-02T11:25:25;26.50;30.00
11491;DHT22;5802;52.832;4.758;2024-03-02T11:28:05;26.50;29.90
11491;DHT22;5802;52.832;4.758;2024-03-02T11:30:49;26.50;30.00
11491;DHT22;5802;52.832;4.758;2024-03-02T11:33:23;26.50;30.00
11491;DHT22;5802;52.832;4.758;2024-03-02T11:35:53;26.50;30.00
11491;DHT22;5802;52.832;4.758;2024-03-02T11:38:19;26.50;30.00
11491;DHT22;5802;52.832;4.758;2024-03-02T11:40:48;26.50;29.80
11491;DHT22;5802;52.832;4.758;2024-03-02T11:43:15;26.50;29.60
11491;DHT22;5802;52.832;4.758;2024-03-02T11:45:43;26.50;29.70
11491;DHT22;5802;52.832;4.758;2024-03-02T11:48:14;26.50;29.60
11491;DHT22;5802;52.832;4.758;2024-03-02T11:50:46;26.50;29.30
11491;DHT22;5802;52.832;4.758;2024-03-02T11:53:14;26.50;29.30
11491;DHT22;5802;52.832;4.758;2024-03-02T11:55:42;26.50;29.30
11491;DHT22;5802;52.832;4.758;2024-03-02T11:58:13;26.50;29.40
11491;DHT22;5802;52.832;4.758;2024-03-02T12:00:40;26.50;29.30
11491;DHT22;5802;52.832;4.758;2024-03-02T12:03:09;26.50;29.30
11491;DHT22;5802;52.832;4.758;2024-03-02T12:05:36;26.50;29.20
11491;DHT22;5802;52.832;4.758;2024-03-02T12:08:05;26.40;29.00
11491;DHT22;5802;52.832;4.758;2024-03-02T12:10:32;26.50;29.00
11491;DHT22;5802;52.832;4.758;2024-03-02T12:13:00;26.40;29.00
11491;DHT22;5802;52.832;4.758;2024-03-02T12:15:31;26.40;29.00
11491;DHT22;5802;52.832;4.758;2024-03-02T12:18:00;26.50;29.20
11491;DHT22;5802;52.832;4.758;2024-03-02T12:20:28;26.50;29.20
11491;DHT22;5802;52.832;4.758;2024-03-02T12:22:57;26.40;29.10
11491;DHT22;5802;52.832;4.758;2024-03-02T12:25:25;26.40;28.90
11491;DHT22;5802;52.832;4.758;2024-03-02T12:27:54;26.40;28.80
11491;DHT22;5802;52.832;4.758;2024-03-02T12:30:22;26.40;28.70
11491;DHT22;5802;52.832;4.758;2024-03-02T12:32:50;26.40;28.70
11491;DHT22;5802;52.832;4.758;2024-03-02T12:35:18;26.40;28.70
11491;DHT22;5802;52.832;4.758;2024-03-02T12:37:46;26.40;28.40
11491;DHT22;5802;52.832;4.758;2024-03-02T12:40:16;26.40;28.50
11491;DHT22;5802;52.832;4.758;2024-03-02T12:42:44;26.40;28.40
11491;DHT22;5802;52.832;4.758;2024-03-02T12:45:13;26.40;28.30
11491;DHT22;5802;52.832;4.758;2024-03-02T12:47:41;26.40;28.40
11491;DHT22;5802;52.832;4.758;2024-03-02T12:50:11;26.30;28.40
11491;DHT22;5802;52.832;4.758;2024-03-02T12:52:38;26.30;28.30
11491;DHT22;5802;52.832;4.758;2024-03-02T12:55:05;26.30;28.40
11491;DHT22;5802;52.832;4.758;2024-03-02T12:57:33;26.30;29.00
11491;DHT22;5802;52.832;4.758;2024-03-02T13:00:00;26.20;29.40
11491;DHT22;5802;52.832;4.758;2024-03-02T13:02:32;26.30;29.90
11491;DHT22;5802;52.832;4.758;2024-03-02T13:04:59;26.30;30.20
11491;DHT22;5802;52.832;4.758;2024-03-02T13:07:28;26.30;30.40
11491;DHT22;5802;52.832;4.758;2024-03-02T13:09:55;26.30;30.70
11491;DHT22;5802;52.832;4.758;2024-03-02T13:12:25;26.30;30.90
11491;DHT22;5802;52.832;4.758;2024-03-02T13:14:52;26.30;31.00
11491;DHT22;5802;52.832;4.758;2024-03-02T13:17:22;26.40;31.20
11491;DHT22;5802;52.832;4.758;2024-03-02T13:19:52;26.30;31.40
11491;DHT22;5802;52.832;4.758;2024-03-02T13:22:20;26.40;31.60
11491;DHT22;5802;52.832;4.758;2024-03-02T13:24:48;26.40;31.60
11491;DHT22;5802;52.832;4.758;2024-03-02T13:27:18;26.40;31.70
11491;DHT22;5802;52.832;4.758;2024-03-02T13:29:46;26.40;31.80
11491;DHT22;5802;52.832;4.758;2024-03-02T13:32:14;26.40;32.00
11491;DHT22;5802;52.832;4.758;2024-03-02T13:34:41;26.40;32.00
11491;DHT22;5802;52.832;4.758;2024-03-02T13:37:07;26.40;32.10
11491;DHT22;5802;52.832;4.758;2024-03-02T13:39:34;26.40;32.20
11491;DHT22;5802;52.832;4.758;2024-03-02T13:42:08;26.40;32.20
11491;DHT22;5802;52.832;4.758;2024-03-02T13:44:35;26.40;32.30
11491;DHT22;5802;52.832;4.758;2024-03-02T13:47:03;26.40;32.30
11491;DHT22;5802;52.832;4.758;2024-03-02T13:49:30;26.40;32.30
11491;DHT22;5802;52.832;4.758;2024-03-02T13:52:02;26.50;32.40
11491;DHT22;5802;52.832;4.758;2024-03-02T13:54:37;26.50;32.50
11491;DHT22;5802;52.832;4.758;2024-03-02T13:57:04;26.50;32.60
11491;DHT22;5802;52.832;4.758;2024-03-02T13:59:32;26.50;32.60
11491;DHT22;5802;52.832;4.758;2024-03-02T14:01:59;26.50;32.70
11491;DHT22;5802;52.832;4.758;2024-03-02T14:04:26;26.50;32.60
11491;DHT22;5802;52.832;4.758;2024-03-02T14:06:53;26.50;32.60
11491;DHT22;5802;52.832;4.758;2024-03-02T14:09:22;26.50;32.70
11491;DHT22;5802;52.832;4.758;2024-03-02T14:11:50;26.50;32.70
11491;DHT22;5802;52.832;4.758;2024-03-02T14:14:17;26.40;32.70
11491;DHT22;5802;52.832;4.758;2024-03-02T14:16:45;26.40;32.70
11491;DHT22;5802;52.832;4.758;2024-03-02T14:19:12;26.40;32.80
11491;DHT22;5802;52.832;4.758;2024-03-02T14:21:39;26.40;32.90
11491;DHT22;5802;52.832;4.758;2024-03-02T14:24:06;26.30;32.90
11491;DHT22;5802;52.832;4.758;2024-03-02T14:26:33;26.30;33.00
11491;DHT22;5802;52.832;4.758;2024-03-02T14:29:01;26.30;33.00
11491;DHT22;5802;52.832;4.758;2024-03-02T14:31:28;26.30;33.10
11491;DHT22;5802;52.832;4.758;2024-03-02T14:33:56;26.30;33.20
11491;DHT22;5802;52.832;4.758;2024-03-02T14:36:23;26.20;33.20
11491;DHT22;5802;52.832;4.758;2024-03-02T14:38:50;26.20;33.20
11491;DHT22;5802;52.832;4.758;2024-03-02T14:41:17;26.20;33.20
11491;DHT22;5802;52.832;4.758;2024-03-02T14:43:43;26.20;33.40
11491;DHT22;5802;52.832;4.758;2024-03-02T14:46:11;26.10;33.30
11491;DHT22;5802;52.832;4.758;2024-03-02T14:48:39;26.10;33.40
11491;DHT22;5802;52.832;4.758;2024-03-02T14:51:07;26.10;33.60
11491;DHT22;5802;52.832;4.758;2024-03-02T14:53:36;26.10;33.70
11491;DHT22;5802;52.832;4.758;2024-03-02T14:56:04;26.00;33.70
11491;DHT22;5802;52.832;4.758;2024-03-02T14:58:31;26.00;33.70
11491;DHT22;5802;52.832;4.758;2024-03-02T15:00:58;26.00;33.70
11491;DHT22;5802;52.832;4.758;2024-03-02T15:03:25;26.00;33.70
11491;DHT22;5802;52.832;4.758;2024-03-02T15:05:51;26.00;33.80
11491;DHT22;5802;52.832;4.758;2024-03-02T15:08:20;25.90;33.70
11491;DHT22;5802;52.832;4.758;2024-03-02T15:10:47;26.00;33.90
11491;DHT22;5802;52.832;4.758;2024-03-02T15:13:14;25.90;33.90
11491;DHT22;5802;52.832;4.758;2024-03-02T15:15:41;25.90;33.80
11491;DHT22;5802;52.832;4.758;2024-03-02T15:18:08;25.90;33.90
11491;DHT22;5802;52.832;4.758;2024-03-02T15:20:35;25.90;33.90
11491;DHT22;5802;52.832;4.758;2024-03-02T15:23:02;25.90;33.90
11491;DHT22;5802;52.832;4.758;2024-03-02T15:25:30;25.90;33.90
11491;DHT22;5802;52.832;4.758;2024-03-02T15:27:57;25.90;33.90
11491;DHT22;5802;52.832;4.758;2024-03-02T15:30:23;25.90;33.90
11491;DHT22;5802;52.832;4.758;2024-03-02T15:32:50;25.90;34.00
11491;DHT22;5802;52.832;4.758;2024-03-02T15:35:17;25.90;34.00
11491;DHT22;5802;52.832;4.758;2024-03-02T15:37:44;25.90;34.00
11491;DHT22;5802;52.832;4.758;2024-03-02T15:40:11;25.80;33.90
11491;DHT22;5802;52.832;4.758;2024-03-02T15:42:39;25.80;34.00
11491;DHT22;5802;52.832;4.758;2024-03-02T15:45:07;25.80;34.10
11491;DHT22;5802;52.832;4.758;2024-03-02T15:47:34;25.80;34.10
11491;DHT22;5802;52.832;4.758;2024-03-02T15:50:01;25.80;34.20